createdAt,value
2022-10-14T00:00:14.177Z,15.51
2022-10-14T00:01:13.958Z,15.43
2022-10-14T00:02:14.176Z,15.47
2022-10-14T00:03:14.222Z,15.44
2022-10-14T00:04:13.727Z,15.46
2022-10-14T00:05:13.774Z,15.46
2022-10-14T00:06:14.282Z,15.46
2022-10-14T00:07:13.787Z,15.47
2022-10-14T00:08:14.061Z,15.51
2022-10-14T00:09:14.091Z,15.49
2022-10-14T00:10:14.366Z,15.47
2022-10-14T00:11:14.378Z,15.52
2022-10-14T00:12:13.902Z,15.51
2022-10-14T00:13:14.449Z,15.39
2022-10-14T00:14:13.933Z,15.4
2022-10-14T00:15:14.448Z,15.47
2022-10-14T00:16:14.481Z,15.4
2022-10-14T00:17:14.528Z,15.4
2022-10-14T00:18:13.999Z,15.4
2022-10-14T00:19:14.531Z,15.35
2022-10-14T00:20:14.548Z,15.31
2022-10-14T00:21:14.574Z,15.4
2022-10-14T00:22:15.579Z,15.43
2022-10-14T00:23:14.349Z,15.35
2022-10-14T00:24:14.379Z,15.36
2022-10-14T00:25:14.388Z,15.37
2022-10-14T00:26:14.663Z,15.37
2022-10-14T00:27:14.433Z,15.42
2022-10-14T00:28:14.491Z,15.49
2022-10-14T00:29:14.738Z,15.37
2022-10-14T00:30:14.733Z,15.43
2022-10-14T00:31:14.239Z,15.37
2022-10-14T00:32:14.524Z,15.43
2022-10-14T00:33:14.837Z,15.37
2022-10-14T00:34:14.296Z,15.37
2022-10-14T00:35:14.836Z,15.36
2022-10-14T00:36:14.860Z,15.37
2022-10-14T00:37:14.873Z,15.39
2022-10-14T00:38:14.640Z,15.39
2022-10-14T00:39:14.913Z,15.43
2022-10-14T00:40:14.924Z,15.49
2022-10-14T00:41:14.703Z,15.4
2022-10-14T00:42:14.720Z,15.27
2022-10-14T00:43:15.016Z,15.46
2022-10-14T00:44:15.027Z,15.37
2022-10-14T00:45:14.792Z,15.44
2022-10-14T00:46:15.047Z,15.43
2022-10-14T00:47:14.809Z,15.47
2022-10-14T00:48:14.818Z,15.42
2022-10-14T00:49:14.876Z,15.42
2022-10-14T00:50:14.873Z,15.42
2022-10-14T00:51:14.626Z,15.43
2022-10-14T00:52:15.297Z,15.37
2022-10-14T00:53:15.328Z,15.37
2022-10-14T00:54:14.673Z,15.39
2022-10-14T00:55:14.952Z,15.37
2022-10-14T00:56:15.267Z,15.37
2022-10-14T00:57:15.396Z,15.42
2022-10-14T00:58:15.325Z,15.39
2022-10-14T00:59:15.289Z,15.36
2022-10-14T01:00:15.073Z,15.36
2022-10-14T01:01:15.540Z,15.43
2022-10-14T01:02:15.086Z,15.39
2022-10-14T01:03:15.116Z,15.42
2022-10-14T01:04:14.878Z,15.37
2022-10-14T01:05:15.195Z,15.42
2022-10-14T01:06:15.414Z,15.37
2022-10-14T01:07:15.190Z,15.43
2022-10-14T01:08:15.443Z,15.39
2022-10-14T01:09:15.229Z,15.37
2022-10-14T01:10:15.488Z,15.39
2022-10-14T01:11:15.249Z,15.37
2022-10-14T01:12:33.197Z,15.36
2022-10-14T01:13:15.294Z,15.35
2022-10-14T01:14:15.302Z,15.37
2022-10-14T01:15:15.573Z,15.4
2022-10-14T01:16:15.626Z,15.29
2022-10-14T01:17:15.649Z,15.29
2022-10-14T01:18:15.637Z,15.33
2022-10-14T01:19:15.399Z,15.44
2022-10-14T01:20:15.163Z,15.4
2022-10-14T01:21:15.715Z,15.39
2022-10-14T01:22:18.758Z,15.44
2022-10-14T01:23:15.831Z,15.43
2022-10-14T01:24:15.740Z,15.36
2022-10-14T01:25:15.772Z,15.44
2022-10-14T01:26:15.537Z,15.39
2022-10-14T01:27:15.283Z,15.42
2022-10-14T01:28:15.611Z,15.39
2022-10-14T01:29:15.586Z,15.43
2022-10-14T01:30:15.867Z,15.39
2022-10-14T01:31:15.626Z,15.37
2022-10-14T01:32:15.660Z,15.4
2022-10-14T01:33:15.948Z,15.37
2022-10-14T01:34:15.677Z,15.36
2022-10-14T01:35:15.700Z,15.42
2022-10-14T01:36:15.979Z,15.44
2022-10-14T01:37:16.016Z,15.37
2022-10-14T01:38:15.755Z,15.39
2022-10-14T01:39:16.023Z,15.4
2022-10-14T01:40:15.532Z,15.27
2022-10-14T01:41:16.059Z,15.25
2022-10-14T01:42:15.828Z,15.4
2022-10-14T01:43:15.852Z,15.44
2022-10-14T01:44:16.121Z,15.37
2022-10-14T01:45:16.135Z,15.39
2022-10-14T01:46:15.670Z,15.39
2022-10-14T01:47:16.182Z,15.43
2022-10-14T01:48:16.223Z,15.39
2022-10-14T01:49:16.250Z,15.37
2022-10-14T01:50:15.726Z,15.4
2022-10-14T01:51:15.995Z,15.39
2022-10-14T01:52:16.274Z,15.42
2022-10-14T01:53:16.060Z,15.39
2022-10-14T01:54:16.056Z,15.42
2022-10-14T01:55:16.110Z,15.4
2022-10-14T01:56:15.836Z,15.44
2022-10-14T01:57:16.365Z,15.39
2022-10-14T01:58:15.873Z,15.44
2022-10-14T01:59:16.407Z,15.42
2022-10-14T02:00:16.427Z,15.35
2022-10-14T02:01:16.486Z,15.39
2022-10-14T02:02:16.020Z,15.4
2022-10-14T02:03:16.240Z,15.36
2022-10-14T02:04:16.529Z,15.39
2022-10-14T02:05:16.552Z,15.39
2022-10-14T02:06:16.549Z,15.46
2022-10-14T02:07:16.560Z,15.4
2022-10-14T02:08:16.574Z,15.35
2022-10-14T02:09:16.362Z,15.43
2022-10-14T02:10:16.618Z,15.4
2022-10-14T02:11:16.373Z,15.42
2022-10-14T02:12:16.670Z,15.37
2022-10-14T02:13:16.411Z,15.4
2022-10-14T02:14:16.173Z,15.37
2022-10-14T02:15:16.717Z,15.46
2022-10-14T02:16:16.728Z,15.43
2022-10-14T02:17:16.745Z,15.37
2022-10-14T02:18:16.510Z,15.4
2022-10-14T02:19:16.786Z,15.46
2022-10-14T02:20:16.831Z,15.37
2022-10-14T02:21:16.853Z,15.39
2022-10-14T02:22:16.869Z,15.37
2022-10-14T02:23:16.406Z,15.37
2022-10-14T02:24:16.358Z,15.43
2022-10-14T02:25:16.926Z,15.4
2022-10-14T02:26:16.910Z,15.33
2022-10-14T02:27:16.937Z,15.31
2022-10-14T02:28:17.107Z,15.27
2022-10-14T02:29:16.972Z,15.39
2022-10-14T02:30:16.475Z,15.39
2022-10-14T02:31:16.752Z,15.31
2022-10-14T02:32:17.106Z,15.28
2022-10-14T02:33:17.059Z,15.36
2022-10-14T02:34:16.546Z,15.43
2022-10-14T02:35:16.826Z,15.39
2022-10-14T02:36:17.129Z,15.4
2022-10-14T02:37:17.151Z,15.44
2022-10-14T02:38:17.170Z,15.51
2022-10-14T02:39:17.163Z,15.35
2022-10-14T02:40:16.664Z,15.36
2022-10-14T02:41:17.307Z,15.43
2022-10-14T02:42:17.214Z,15.35
2022-10-14T02:43:17.233Z,15.44
2022-10-14T02:44:17.009Z,15.4
2022-10-14T02:45:17.018Z,15.37
2022-10-14T02:46:17.037Z,15.43
2022-10-14T02:47:17.054Z,15.42
2022-10-14T02:48:17.337Z,15.42
2022-10-14T02:49:17.350Z,15.44
2022-10-14T02:50:16.884Z,15.43
2022-10-14T02:51:17.128Z,15.42
2022-10-14T02:52:17.418Z,15.39
2022-10-14T02:53:17.200Z,15.4
2022-10-14T02:54:17.217Z,15.37
2022-10-14T02:55:17.465Z,15.37
2022-10-14T02:56:17.223Z,15.37
2022-10-14T02:57:17.522Z,15.42
2022-10-14T02:58:17.658Z,15.35
2022-10-14T02:59:17.535Z,15.35
2022-10-14T03:00:17.191Z,15.36
2022-10-14T03:01:17.773Z,15.35
2022-10-14T03:02:17.740Z,15.35
2022-10-14T03:03:17.502Z,15.43
2022-10-14T03:04:17.470Z,15.4
2022-10-14T03:05:17.639Z,15.4
2022-10-14T03:06:17.512Z,15.4
2022-10-14T03:07:17.786Z,15.39
2022-10-14T03:08:17.518Z,15.4
2022-10-14T03:09:17.739Z,15.39
2022-10-14T03:10:17.477Z,15.39
2022-10-14T03:11:17.236Z,15.42
2022-10-14T03:12:17.776Z,15.42
2022-10-14T03:13:17.544Z,15.44
2022-10-14T03:14:17.808Z,15.4
2022-10-14T03:15:17.833Z,15.44
2022-10-14T03:16:17.594Z,15.28
2022-10-14T03:17:17.617Z,15.4
2022-10-14T03:18:17.626Z,15.36
2022-10-14T03:19:17.642Z,15.25
2022-10-14T03:20:17.410Z,15.42
2022-10-14T03:21:17.689Z,15.4
2022-10-14T03:22:17.963Z,15.42
2022-10-14T03:23:18.181Z,15.39
2022-10-14T03:24:17.764Z,15.44
2022-10-14T03:25:18.031Z,15.35
2022-10-14T03:26:18.865Z,15.39
2022-10-14T03:27:17.798Z,15.28
2022-10-14T03:28:17.739Z,15.27
2022-10-14T03:29:18.106Z,15.42
2022-10-14T03:30:18.113Z,15.39
2022-10-14T03:31:18.132Z,15.29
2022-10-14T03:32:17.907Z,15.37
2022-10-14T03:33:25.969Z,15.31
2022-10-14T03:34:18.187Z,15.37
2022-10-14T03:35:17.950Z,15.36
2022-10-14T03:36:18.205Z,15.39
2022-10-14T03:37:18.242Z,15.35
2022-10-14T03:38:18.254Z,15.39
2022-10-14T03:39:18.275Z,15.28
2022-10-14T03:40:18.054Z,15.39
2022-10-14T03:41:18.080Z,15.4
2022-10-14T03:42:18.491Z,15.4
2022-10-14T03:43:18.101Z,15.27
2022-10-14T03:44:18.105Z,15.42
2022-10-14T03:45:18.146Z,15.33
2022-10-14T03:46:18.395Z,15.35
2022-10-14T03:47:18.423Z,15.39
2022-10-14T03:48:18.443Z,15.35
2022-10-14T03:49:18.456Z,15.37
2022-10-14T03:50:18.497Z,15.35
2022-10-14T03:51:18.497Z,15.37
2022-10-14T03:52:18.479Z,15.33
2022-10-14T03:53:18.275Z,15.42
2022-10-14T03:54:18.290Z,15.39
2022-10-14T03:55:18.093Z,15.37
2022-10-14T03:56:18.354Z,15.4
2022-10-14T03:57:18.375Z,15.43
2022-10-14T03:58:18.619Z,15.36
2022-10-14T03:59:18.651Z,15.28
2022-10-14T04:00:18.699Z,15.25
2022-10-14T04:01:18.469Z,15.37
2022-10-14T04:02:19.052Z,15.31
2022-10-14T04:03:18.218Z,15.37
2022-10-14T04:04:18.741Z,15.28
2022-10-14T04:05:18.505Z,15.31
2022-10-14T04:06:18.777Z,15.42
2022-10-14T04:07:18.542Z,15.37
2022-10-14T04:08:18.561Z,15.29
2022-10-14T04:09:18.838Z,15.39
2022-10-14T04:10:18.599Z,15.39
2022-10-14T04:11:18.865Z,15.35
2022-10-14T04:12:18.576Z,15.35
2022-10-14T04:13:18.674Z,15.35
2022-10-14T04:14:18.671Z,15.29
2022-10-14T04:15:18.947Z,15.29
2022-10-14T04:16:18.712Z,15.36
2022-10-14T04:17:18.752Z,15.36
2022-10-14T04:18:18.999Z,15.28
2022-10-14T04:19:18.763Z,15.28
2022-10-14T04:20:18.775Z,15.35
2022-10-14T04:21:18.796Z,15.36
2022-10-14T04:22:19.294Z,15.21
2022-10-14T04:23:18.946Z,15.31
2022-10-14T04:24:19.116Z,15.36
2022-10-14T04:25:18.636Z,15.33
2022-10-14T04:26:19.175Z,15.29
2022-10-14T04:27:18.913Z,15.39
2022-10-14T04:28:19.124Z,15.35
2022-10-14T04:29:19.231Z,15.33
2022-10-14T04:30:19.227Z,15.35
2022-10-14T04:31:19.244Z,15.35
2022-10-14T04:32:19.621Z,15.37
2022-10-14T04:33:19.313Z,15.36
2022-10-14T04:34:19.037Z,15.18
2022-10-14T04:35:19.327Z,15.27
2022-10-14T04:36:19.083Z,15.35
2022-10-14T04:37:19.344Z,15.36
2022-10-14T04:38:18.866Z,15.35
2022-10-14T04:39:19.145Z,15.35
2022-10-14T04:40:19.415Z,15.35
2022-10-14T04:41:19.443Z,15.39
2022-10-14T04:42:19.765Z,15.31
2022-10-14T04:43:19.490Z,15.31
2022-10-14T04:44:19.280Z,15.28
2022-10-14T04:45:19.531Z,15.37
2022-10-14T04:46:19.278Z,15.35
2022-10-14T04:47:19.278Z,15.28
2022-10-14T04:48:19.315Z,15.35
2022-10-14T04:49:19.605Z,15.29
2022-10-14T04:50:19.336Z,15.33
2022-10-14T04:51:19.358Z,15.36
2022-10-14T04:52:19.642Z,15.35
2022-10-14T04:53:24.849Z,15.29
2022-10-14T04:54:19.421Z,15.29
2022-10-14T04:55:19.684Z,15.31
2022-10-14T04:56:19.454Z,15.29
2022-10-14T04:57:19.737Z,15.31
2022-10-14T04:58:19.748Z,15.33
2022-10-14T04:59:19.762Z,15.31
2022-10-14T05:00:19.801Z,15.35
2022-10-14T05:01:19.911Z,15.36
2022-10-14T05:02:20.251Z,15.33
2022-10-14T05:03:19.840Z,15.29
2022-10-14T05:04:19.869Z,15.27
2022-10-14T05:05:19.926Z,15.31
2022-10-14T05:06:19.896Z,15.37
2022-10-14T05:07:19.661Z,15.33
2022-10-14T05:08:19.937Z,15.33
2022-10-14T05:09:19.955Z,15.35
2022-10-14T05:10:19.462Z,15.31
2022-10-14T05:11:19.986Z,15.33
2022-10-14T05:12:20.336Z,15.29
2022-10-14T05:13:20.035Z,15.31
2022-10-14T05:14:20.065Z,15.27
2022-10-14T05:15:19.552Z,15.28
2022-10-14T05:16:19.850Z,15.31
2022-10-14T05:17:20.156Z,15.28
2022-10-14T05:18:19.865Z,15.31
2022-10-14T05:19:20.143Z,15.31
2022-10-14T05:20:20.159Z,15.28
2022-10-14T05:21:19.935Z,15.27
2022-10-14T05:22:20.308Z,15.25
2022-10-14T05:23:20.323Z,15.33
2022-10-14T05:24:19.980Z,15.28
2022-10-14T05:25:20.300Z,15.27
2022-10-14T05:26:19.758Z,15.24
2022-10-14T05:27:20.339Z,15.27
2022-10-14T05:28:20.382Z,15.27
2022-10-14T05:29:20.336Z,15.28
2022-10-14T05:30:20.342Z,15.31
2022-10-14T05:31:20.114Z,15.28
2022-10-14T05:32:20.482Z,15.33
2022-10-14T05:33:20.424Z,15.29
2022-10-14T05:34:20.413Z,15.29
2022-10-14T05:35:57.945Z,15.28
2022-10-14T05:36:20.453Z,15.33
2022-10-14T05:37:20.512Z,15.37
2022-10-14T05:38:20.343Z,15.31
2022-10-14T05:39:20.361Z,15.28
2022-10-14T05:40:20.525Z,15.29
2022-10-14T05:41:20.395Z,15.31
2022-10-14T05:42:20.612Z,15.28
2022-10-14T05:43:20.331Z,15.22
2022-10-14T05:44:20.350Z,15.28
2022-10-14T05:45:20.627Z,15.28
2022-10-14T05:46:20.387Z,15.25
2022-10-14T05:47:20.651Z,15.29
2022-10-14T05:48:20.701Z,15.33
2022-10-14T05:49:20.718Z,15.29
2022-10-14T05:50:20.729Z,15.27
2022-10-14T05:51:20.733Z,15.27
2022-10-14T05:52:20.877Z,15.22
2022-10-14T05:53:20.835Z,15.25
2022-10-14T05:54:20.793Z,15.22
2022-10-14T05:55:20.814Z,15.22
2022-10-14T05:56:20.823Z,15.25
2022-10-14T05:57:20.588Z,15.24
2022-10-14T05:58:20.598Z,15.28
2022-10-14T05:59:20.627Z,15.18
2022-10-14T06:00:26.054Z,15.21
2022-10-14T06:01:20.412Z,15.27
2022-10-14T06:02:21.253Z,15.25
2022-10-14T06:03:20.983Z,15.27
2022-10-14T06:04:21.004Z,15.25
2022-10-14T06:05:21.026Z,15.24
2022-10-14T06:06:23.244Z,15.35
2022-10-14T06:07:20.799Z,15.24
2022-10-14T06:08:20.537Z,15.27
2022-10-14T06:09:21.090Z,15.27
2022-10-14T06:10:20.577Z,15.24
2022-10-14T06:11:21.110Z,15.27
2022-10-14T06:12:21.223Z,15.27
2022-10-14T06:13:20.885Z,15.24
2022-10-14T06:14:20.914Z,15.28
2022-10-14T06:15:21.189Z,15.31
2022-10-14T06:16:20.942Z,15.22
2022-10-14T06:17:22.297Z,15.27
2022-10-14T06:18:20.976Z,15.31
2022-10-14T06:19:21.001Z,15.31
2022-10-14T06:20:21.298Z,15.35
2022-10-14T06:21:21.320Z,15.33
2022-10-14T06:22:21.869Z,15.35
2022-10-14T06:23:21.181Z,15.28
2022-10-14T06:24:21.104Z,15.33
2022-10-14T06:25:21.390Z,15.33
2022-10-14T06:26:21.382Z,15.33
2022-10-14T06:27:21.149Z,15.31
2022-10-14T06:28:21.402Z,15.35
2022-10-14T06:29:21.489Z,15.29
2022-10-14T06:30:21.208Z,15.35
2022-10-14T06:31:21.218Z,15.31
2022-10-14T06:32:22.303Z,15.31
2022-10-14T06:33:21.261Z,15.28
2022-10-14T06:34:21.275Z,15.28
2022-10-14T06:35:21.560Z,15.28
2022-10-14T06:36:21.597Z,15.28
2022-10-14T06:37:21.625Z,15.29
2022-10-14T06:38:21.618Z,15.35
2022-10-14T06:39:21.373Z,15.29
2022-10-14T06:40:21.408Z,15.39
2022-10-14T06:41:21.696Z,15.37
2022-10-14T06:42:21.178Z,15.24
2022-10-14T06:43:21.446Z,15.36
2022-10-14T06:44:21.479Z,15.36
2022-10-14T06:45:21.487Z,15.33
2022-10-14T06:46:21.762Z,15.31
2022-10-14T06:47:21.520Z,15.28
2022-10-14T06:48:21.543Z,15.27
2022-10-14T06:49:21.562Z,15.33
2022-10-14T06:50:21.587Z,15.29
2022-10-14T06:51:21.605Z,15.36
2022-10-14T06:52:22.192Z,15.31
2022-10-14T06:53:21.653Z,15.33
2022-10-14T06:54:21.918Z,15.29
2022-10-14T06:55:21.928Z,15.31
2022-10-14T06:56:21.958Z,15.4
2022-10-14T06:57:21.988Z,15.33
2022-10-14T06:58:21.732Z,15.27
2022-10-14T06:59:21.496Z,15.36
2022-10-14T07:00:21.778Z,15.43
2022-10-14T07:01:22.221Z,15.42
2022-10-14T07:02:22.862Z,15.43
2022-10-14T07:03:22.083Z,15.44
2022-10-14T07:04:22.099Z,15.43
2022-10-14T07:05:22.118Z,15.42
2022-10-14T07:06:21.887Z,15.39
2022-10-14T07:07:22.151Z,15.43
2022-10-14T07:08:21.681Z,15.43
2022-10-14T07:09:22.217Z,15.37
2022-10-14T07:10:21.950Z,15.36
2022-10-14T07:11:21.973Z,15.46
2022-10-14T07:12:23.023Z,15.4
2022-10-14T07:13:22.384Z,15.4
2022-10-14T07:14:22.287Z,15.37
2022-10-14T07:15:22.056Z,15.42
2022-10-14T07:16:22.321Z,15.46
2022-10-14T07:17:23.234Z,15.4
2022-10-14T07:18:22.356Z,15.37
2022-10-14T07:19:22.177Z,15.42
2022-10-14T07:20:22.146Z,15.47
2022-10-14T07:21:22.412Z,15.49
2022-10-14T07:22:23.346Z,15.43
2022-10-14T07:23:22.152Z,15.51
2022-10-14T07:24:22.597Z,15.42
2022-10-14T07:25:22.529Z,15.46
2022-10-14T07:26:22.535Z,15.42
2022-10-14T07:27:23.410Z,15.54
2022-10-14T07:28:22.745Z,15.44
2022-10-14T07:29:22.334Z,15.36
2022-10-14T07:30:22.683Z,15.4
2022-10-14T07:31:22.607Z,15.42
2022-10-14T07:32:22.619Z,15.4
2022-10-14T07:33:22.675Z,15.39
2022-10-14T07:34:22.650Z,15.37
2022-10-14T07:35:22.420Z,15.42
2022-10-14T07:36:27.036Z,15.35
2022-10-14T07:37:23.253Z,15.49
2022-10-14T07:38:22.486Z,15.47
2022-10-14T07:39:22.760Z,15.49
2022-10-14T07:40:22.323Z,15.51
2022-10-14T07:41:22.560Z,15.47
2022-10-14T07:42:22.553Z,15.49
2022-10-14T07:43:22.831Z,15.49
2022-10-14T07:44:27.552Z,15.46
2022-10-14T07:45:23.040Z,15.49
2022-10-14T07:46:22.782Z,15.55
2022-10-14T07:47:23.795Z,15.46
2022-10-14T07:48:57.387Z,15.52
2022-10-14T07:49:23.041Z,15.58
2022-10-14T07:50:22.841Z,15.55
2022-10-14T07:51:22.732Z,15.58
2022-10-14T07:52:22.993Z,15.55
2022-10-14T07:53:23.058Z,15.57
2022-10-14T07:54:22.780Z,15.55
2022-10-14T07:55:23.099Z,15.57
2022-10-14T07:56:23.122Z,15.57
2022-10-14T07:57:24.139Z,15.57
2022-10-14T07:58:23.107Z,15.59
2022-10-14T07:59:22.612Z,15.57
2022-10-14T08:00:23.192Z,15.61
2022-10-14T08:01:23.368Z,15.65
2022-10-14T08:02:23.202Z,15.58
2022-10-14T08:03:23.198Z,15.58
2022-10-14T08:04:23.217Z,15.57
2022-10-14T08:05:42.033Z,15.58
2022-10-14T08:06:22.837Z,15.59
2022-10-14T08:07:23.706Z,15.61
2022-10-14T08:08:23.089Z,15.58
2022-10-14T08:09:23.224Z,15.61
2022-10-14T08:10:23.423Z,15.58
2022-10-14T08:11:23.373Z,15.65
2022-10-14T08:12:24.132Z,15.75
2022-10-14T08:13:23.414Z,15.64
2022-10-14T08:14:23.416Z,15.64
2022-10-14T08:15:23.429Z,15.65
2022-10-14T08:16:23.198Z,15.61
2022-10-14T08:17:23.522Z,15.65
2022-10-14T08:18:23.481Z,15.61
2022-10-14T08:19:23.249Z,15.62
2022-10-14T08:20:23.383Z,15.67
2022-10-14T08:21:23.571Z,15.75
2022-10-14T08:22:24.236Z,15.77
2022-10-14T08:23:24.405Z,15.67
2022-10-14T08:24:23.341Z,15.8
2022-10-14T08:25:23.612Z,15.77
2022-10-14T08:26:23.635Z,15.77
2022-10-14T08:27:23.656Z,15.77
2022-10-14T08:28:23.320Z,15.82
2022-10-14T08:29:23.721Z,15.82
2022-10-14T08:30:23.795Z,15.88
2022-10-14T08:31:23.757Z,15.9
2022-10-14T08:32:24.849Z,15.86
2022-10-14T08:33:23.801Z,15.94
2022-10-14T08:34:23.274Z,16
2022-10-14T08:35:23.808Z,15.94
2022-10-14T08:36:23.847Z,15.97
2022-10-14T08:37:23.850Z,16
2022-10-14T08:38:23.639Z,15.95
2022-10-14T08:39:23.892Z,16
2022-10-14T08:40:23.763Z,15.98
2022-10-14T08:41:23.935Z,15.98
2022-10-14T08:42:24.843Z,16.01
2022-10-14T08:43:23.968Z,16.01
2022-10-14T08:44:23.499Z,16.08
2022-10-14T08:45:24.033Z,16.08
2022-10-14T08:46:24.018Z,16.15
2022-10-14T08:47:24.056Z,16.2
2022-10-14T08:48:24.075Z,16.17
2022-10-14T08:49:23.845Z,16.13
2022-10-14T08:50:23.840Z,16.17
2022-10-14T08:51:23.851Z,16.26
2022-10-14T08:52:25.300Z,16.2
2022-10-14T08:53:23.894Z,16.2
2022-10-14T08:54:23.661Z,16.17
2022-10-14T08:55:23.938Z,16.23
2022-10-14T08:56:23.958Z,16.21
2022-10-14T08:57:24.234Z,16.2
2022-10-14T08:59:24.275Z,16.21
2022-10-14T09:00:24.281Z,16.17
2022-10-14T09:01:24.095Z,16.26
2022-10-14T09:02:25.246Z,16.17
2022-10-14T09:03:24.087Z,16.23
2022-10-14T09:04:24.343Z,16.29
2022-10-14T09:05:24.425Z,16.31
2022-10-14T09:06:24.146Z,16.28
2022-10-14T09:07:24.425Z,16.31
2022-10-14T09:08:24.197Z,16.31
2022-10-14T09:09:24.477Z,16.28
2022-10-14T09:10:24.220Z,16.31
2022-10-14T09:11:24.241Z,16.33
2022-10-14T09:12:25.568Z,16.28
2022-10-14T09:13:24.552Z,16.38
2022-10-14T09:14:24.298Z,16.38
2022-10-14T09:15:24.317Z,16.46
2022-10-14T09:16:24.622Z,16.41
2022-10-14T09:17:24.650Z,16.49
2022-10-14T09:18:24.707Z,16.42
2022-10-14T09:19:24.399Z,16.42
2022-10-14T09:20:24.718Z,16.53
2022-10-14T09:22:00.439Z,16.49
2022-10-14T09:22:25.730Z,16.42
2022-10-14T09:23:24.426Z,16.47
2022-10-14T09:24:24.750Z,16.43
2022-10-14T09:25:24.770Z,16.61
2022-10-14T09:26:24.530Z,16.49
2022-10-14T09:27:25.688Z,16.58
2022-10-14T09:28:24.496Z,16.64
2022-10-14T09:29:24.855Z,16.57
2022-10-14T09:30:24.641Z,16.57
2022-10-14T09:31:24.810Z,16.54
2022-10-14T09:32:25.939Z,16.68
2022-10-14T09:33:24.704Z,16.6
2022-10-14T09:34:25.297Z,16.61
2022-10-14T09:35:24.724Z,16.66
2022-10-14T09:36:24.996Z,16.6
2022-10-14T09:37:26.126Z,16.71
2022-10-14T09:38:24.770Z,16.64
2022-10-14T09:39:25.048Z,16.72
2022-10-14T09:40:24.816Z,16.6
2022-10-14T09:41:24.836Z,16.65
2022-10-14T09:42:24.851Z,16.75
2022-10-14T09:43:24.627Z,16.69
2022-10-14T09:44:24.898Z,16.69
2022-10-14T09:45:24.921Z,16.76
2022-10-14T09:46:24.930Z,16.78
2022-10-14T09:47:25.906Z,16.72
2022-10-14T09:48:24.994Z,16.75
2022-10-14T09:49:25.265Z,16.69
2022-10-14T09:50:25.012Z,16.72
2022-10-14T09:51:25.289Z,16.76
2022-10-14T09:52:25.303Z,16.76
2022-10-14T09:53:25.353Z,16.74
2022-10-14T09:54:25.343Z,16.66
2022-10-14T09:55:25.361Z,16.74
2022-10-14T09:56:25.812Z,16.66
2022-10-14T09:57:26.321Z,16.72
2022-10-14T09:58:25.201Z,16.76
2022-10-14T09:59:25.440Z,16.71
2022-10-14T10:00:25.208Z,16.74
2022-10-14T10:01:25.222Z,16.66
2022-10-14T10:02:25.249Z,16.69
2022-10-14T10:03:25.530Z,16.74
2022-10-14T10:04:25.309Z,16.72
2022-10-14T10:05:25.626Z,16.76
2022-10-14T10:06:25.411Z,16.74
2022-10-14T10:07:26.926Z,16.72
2022-10-14T10:08:25.463Z,16.74
2022-10-14T10:09:25.762Z,16.71
2022-10-14T10:10:25.507Z,16.68
2022-10-14T10:11:25.207Z,16.72
2022-10-14T10:12:25.739Z,16.76
2022-10-14T10:13:25.539Z,16.76
2022-10-14T10:14:25.744Z,16.75
2022-10-14T10:15:25.756Z,16.78
2022-10-14T10:16:25.521Z,16.84
2022-10-14T10:17:26.148Z,16.75
2022-10-14T10:18:25.564Z,16.81
2022-10-14T10:19:25.831Z,16.79
2022-10-14T10:20:25.869Z,16.76
2022-10-14T10:21:25.900Z,16.83
2022-10-14T10:22:25.915Z,16.83
2022-10-14T10:23:26.206Z,16.86
2022-10-14T10:24:30.883Z,16.91
2022-10-14T10:25:25.977Z,16.91
2022-10-14T10:26:25.459Z,16.93
2022-10-14T10:27:26.770Z,16.9
2022-10-14T10:28:26.177Z,16.9
2022-10-14T10:29:25.761Z,16.99
2022-10-14T10:30:25.796Z,16.91
2022-10-14T10:31:26.021Z,16.97
2022-10-14T10:32:26.867Z,16.91
2022-10-14T10:33:26.119Z,16.94
2022-10-14T10:34:26.129Z,16.99
2022-10-14T10:35:25.886Z,16.94
2022-10-14T10:36:26.578Z,16.99
2022-10-14T10:37:27.014Z,17.01
2022-10-14T10:38:26.204Z,16.97
2022-10-14T10:39:25.967Z,17.01
2022-10-14T10:40:26.236Z,17.04
2022-10-14T10:41:26.027Z,17.02
2022-10-14T10:42:27.348Z,16.96
2022-10-14T10:43:26.307Z,16.99
2022-10-14T10:44:26.056Z,17.02
2022-10-14T10:45:26.086Z,16.93
2022-10-14T10:46:26.100Z,16.94
2022-10-14T10:47:26.395Z,16.96
2022-10-14T10:48:25.886Z,16.93
2022-10-14T10:49:26.421Z,16.93
2022-10-14T10:50:25.936Z,17.01
2022-10-14T10:51:26.205Z,16.96
2022-10-14T10:52:27.379Z,16.96
2022-10-14T10:53:26.541Z,16.99
2022-10-14T10:54:26.265Z,16.93
2022-10-14T10:55:26.029Z,16.93
2022-10-14T10:56:26.302Z,17.04
2022-10-14T10:57:27.025Z,16.93
2022-10-14T10:58:26.608Z,16.96
2022-10-14T10:59:26.623Z,16.96
2022-10-14T11:00:26.434Z,16.97
2022-10-14T11:01:26.795Z,16.96
2022-10-14T11:02:27.104Z,16.96
2022-10-14T11:03:26.705Z,16.99
2022-10-14T11:04:26.206Z,16.87
2022-10-14T11:05:26.227Z,16.93
2022-10-14T11:06:26.503Z,16.91
2022-10-14T11:07:32.796Z,16.93
2022-10-14T11:08:26.961Z,16.93
2022-10-14T11:09:26.602Z,16.93
2022-10-14T11:10:26.327Z,16.97
2022-10-14T11:11:26.603Z,16.86
2022-10-14T11:12:27.651Z,16.89
2022-10-14T11:13:30.878Z,16.97
2022-10-14T11:14:26.916Z,16.96
2022-10-14T11:15:26.945Z,16.9
2022-10-14T11:16:26.719Z,16.9
2022-10-14T11:17:28.072Z,16.97
2022-10-14T11:18:26.744Z,16.96
2022-10-14T11:19:27.029Z,16.96
2022-10-14T11:20:27.056Z,16.9
2022-10-14T11:21:27.065Z,16.96
2022-10-14T11:22:27.528Z,17.01
2022-10-14T11:23:27.067Z,16.97
2022-10-14T11:24:27.139Z,17.02
2022-10-14T11:25:27.161Z,16.89
2022-10-14T11:26:27.138Z,16.99
2022-10-14T11:27:30.320Z,16.99
2022-10-14T11:28:27.108Z,16.96
2022-10-14T11:29:27.237Z,16.99
2022-10-14T11:30:27.240Z,17.01
2022-10-14T11:31:26.999Z,16.99
2022-10-14T11:32:27.284Z,17.01
2022-10-14T11:33:27.055Z,17.01
2022-10-14T11:34:27.063Z,17.05
2022-10-14T11:35:27.543Z,17.01
2022-10-14T11:36:27.104Z,16.96
2022-10-14T11:37:27.908Z,17.02
2022-10-14T11:38:27.569Z,17.01
2022-10-14T11:39:27.915Z,17.06
2022-10-14T11:40:27.443Z,17.08
2022-10-14T11:41:27.480Z,17.06
2022-10-14T11:42:28.154Z,17.08
2022-10-14T11:43:27.241Z,17.02
2022-10-14T11:44:27.464Z,16.97
2022-10-14T11:45:27.340Z,17.08
2022-10-14T11:46:27.299Z,17.09
2022-10-14T11:47:27.991Z,17.05
2022-10-14T11:48:27.356Z,17.09
2022-10-14T11:49:27.621Z,17.02
2022-10-14T11:50:27.646Z,16.97
2022-10-14T11:51:29.713Z,17.11
2022-10-14T11:52:27.691Z,17.2
2022-10-14T11:53:27.619Z,17.14
2022-10-14T11:54:27.459Z,17.22
2022-10-14T11:55:27.500Z,17.19
2022-10-14T11:56:27.773Z,17.15
2022-10-14T11:57:28.235Z,17.14
2022-10-14T11:58:27.792Z,17.16
2022-10-14T11:59:27.815Z,17.14
2022-10-14T12:01:27.884Z,17.22
2022-10-14T12:02:29.393Z,17.24
2022-10-14T12:03:27.638Z,17.22
2022-10-14T12:04:27.670Z,17.27
2022-10-14T12:05:27.671Z,17.27
2022-10-14T12:06:27.959Z,17.23
2022-10-14T12:07:27.979Z,17.23
2022-10-14T12:08:29.363Z,17.3
2022-10-14T12:09:28.000Z,17.36
2022-10-14T12:10:27.810Z,17.36
2022-10-14T12:11:27.821Z,17.3
2022-10-14T12:12:28.348Z,17.36
2022-10-14T12:13:28.117Z,17.36
2022-10-14T12:14:27.868Z,17.41
2022-10-14T12:15:28.287Z,17.45
2022-10-14T12:16:27.923Z,17.46
2022-10-14T12:17:28.728Z,17.46
2022-10-14T12:18:28.392Z,17.41
2022-10-14T12:19:27.970Z,17.44
2022-10-14T12:20:27.718Z,17.46
2022-10-14T12:21:28.007Z,17.46
2022-10-14T12:22:28.529Z,17.42
2022-10-14T12:23:28.498Z,17.46
2022-10-14T12:24:27.801Z,17.44
2022-10-14T12:25:28.345Z,17.39
2022-10-14T12:26:28.091Z,17.51
2022-10-14T12:27:28.661Z,17.41
2022-10-14T12:28:28.202Z,17.39
2022-10-14T12:29:28.440Z,17.44
2022-10-14T12:30:28.464Z,17.41
2022-10-14T12:31:28.456Z,17.46
2022-10-14T12:32:29.328Z,17.48
2022-10-14T12:33:28.261Z,17.48
2022-10-14T12:34:28.513Z,17.56
2022-10-14T12:35:28.026Z,17.52
2022-10-14T12:36:28.462Z,17.54
2022-10-14T12:37:34.908Z,17.57
2022-10-14T12:38:28.329Z,17.6
2022-10-14T12:39:28.360Z,17.52
2022-10-14T12:40:28.117Z,17.59
2022-10-14T12:41:28.651Z,17.68
2022-10-14T12:42:28.910Z,17.68
2022-10-14T12:43:28.462Z,17.64
2022-10-14T12:44:28.723Z,17.65
2022-10-14T12:45:28.872Z,17.72
2022-10-14T12:46:28.757Z,17.67
2022-10-14T12:47:29.450Z,17.72
2022-10-14T12:48:28.794Z,17.68
2022-10-14T12:49:28.833Z,17.7
2022-10-14T12:50:28.840Z,17.72
2022-10-14T12:51:28.602Z,17.74
2022-10-14T12:52:28.865Z,17.89
2022-10-14T12:53:28.901Z,17.82
2022-10-14T12:54:28.933Z,17.86
2022-10-14T12:55:28.680Z,17.87
2022-10-14T12:56:28.949Z,17.94